createdAt,value
2023-03-02T06:49:36.357Z,500.00
2023-03-02T06:50:37.325Z,500.00
2023-03-02T06:51:37.310Z,500.00
2023-03-02T06:52:36.278Z,500.00
2023-03-02T06:53:37.279Z,500.00
2023-03-02T06:54:37.273Z,400.00
2023-03-02T07:01:07.208Z,400.00
2023-03-02T07:20:36.097Z,400.00
2023-03-02T07:22:36.107Z,400.00
2023-03-02T07:27:36.054Z,400.00
2023-03-02T07:30:36.126Z,400.00
2023-03-02T07:34:35.998Z,400.00
2023-03-02T07:52:36.905Z,497.00
2023-03-02T07:53:36.965Z,490.00
2023-03-02T07:55:36.879Z,502.00
2023-03-02T07:56:37.163Z,508.00
2023-03-02T07:58:35.869Z,509.00
2023-03-02T07:59:35.864Z,521.00
2023-03-02T08:00:35.866Z,520.00
2023-03-02T08:01:36.963Z,541.00
2023-03-02T08:02:36.908Z,555.00
2023-03-02T08:03:36.933Z,530.00
2023-03-02T08:06:37.039Z,574.00
2023-03-02T08:07:36.035Z,587.00
2023-03-02T08:08:37.097Z,595.00
2023-03-02T08:10:37.162Z,615.00
2023-03-02T08:11:37.182Z,634.00
2023-03-02T08:13:36.249Z,648.00
2023-03-02T08:14:37.277Z,638.00
2023-03-02T08:15:36.309Z,652.00
2023-03-02T08:16:37.466Z,651.00
2023-03-02T08:17:36.308Z,677.00
2023-03-02T08:19:37.363Z,669.00
2023-03-02T08:20:37.455Z,685.00
2023-03-02T08:21:37.475Z,529.00
2023-03-02T08:22:36.507Z,544.00
2023-03-02T08:24:37.560Z,611.00
2023-03-02T08:25:37.630Z,589.00
2023-03-02T08:26:37.612Z,596.00
2023-03-02T08:27:36.671Z,604.00
2023-03-02T08:28:36.707Z,610.00
2023-03-02T08:29:37.704Z,664.00
2023-03-02T08:30:37.718Z,637.00
2023-03-02T08:31:37.040Z,641.00
2023-03-02T08:32:37.843Z,639.00
2023-03-02T08:33:37.820Z,644.00
2023-03-02T08:34:37.862Z,660.00
2023-03-02T08:35:37.957Z,661.00
2023-03-02T08:36:37.957Z,675.00
2023-03-02T08:37:37.981Z,679.00
2023-03-02T08:38:37.987Z,681.00
2023-03-02T08:39:37.998Z,697.00
2023-03-02T08:40:38.043Z,714.00
2023-03-02T08:41:37.164Z,740.00
2023-03-02T08:42:38.166Z,746.00
2023-03-02T08:43:38.215Z,774.00
2023-03-02T08:44:37.301Z,770.00
2023-03-02T08:45:38.432Z,763.00
2023-03-02T08:46:38.715Z,752.00
2023-03-02T08:47:37.418Z,805.00
2023-03-02T08:48:38.512Z,775.00
2023-03-02T08:50:38.525Z,764.00
2023-03-02T08:51:38.676Z,766.00
